createdAt,value
2022-10-21T00:00:56.496Z,66.31
2022-10-21T00:03:24.942Z,67.15
2022-10-21T00:05:53.049Z,68.00
2022-10-21T00:08:21.951Z,68.06
2022-10-21T00:10:54.290Z,68.12
2022-10-21T00:13:22.338Z,68.62
2022-10-21T00:16:14.574Z,69.26
2022-10-21T00:18:44.042Z,69.67
2022-10-21T00:21:20.314Z,69.35
2022-10-21T00:23:48.733Z,69.77
2022-10-21T00:26:17.677Z,70.60
2022-10-21T00:28:45.222Z,70.85
2022-10-21T00:31:14.795Z,71.03
2022-10-21T00:33:42.715Z,71.07
2022-10-21T00:36:15.495Z,70.98
2022-10-21T00:38:45.469Z,71.54
2022-10-21T00:41:14.085Z,71.48
2022-10-21T00:44:01.972Z,71.69
2022-10-21T00:46:47.354Z,72.64
2022-10-21T00:49:44.190Z,72.83
2022-10-21T00:52:16.813Z,72.68
2022-10-21T00:54:46.026Z,73.16
2022-10-21T00:57:13.447Z,73.13
2022-10-21T00:59:45.822Z,73.38
2022-10-21T01:02:13.223Z,73.34
2022-10-21T01:04:40.609Z,73.54
2022-10-21T01:07:08.146Z,73.15
2022-10-21T01:09:35.595Z,73.06
2022-10-21T01:12:04.368Z,71.90
2022-10-21T01:14:37.928Z,72.10
2022-10-21T01:18:03.988Z,71.35
2022-10-21T01:21:16.147Z,69.56
2022-10-21T01:24:25.192Z,67.93
2022-10-21T01:27:06.096Z,67.74
2022-10-21T01:30:10.151Z,67.59
2022-10-21T01:33:35.783Z,67.18
2022-10-21T01:36:30.336Z,65.26
2022-10-21T01:39:03.627Z,61.07
2022-10-21T01:41:41.778Z,60.27
2022-10-21T01:44:34.895Z,58.11
2022-10-21T01:47:19.662Z,58.89
2022-10-21T01:49:53.161Z,58.98
2022-10-21T01:52:20.974Z,58.58
2022-10-21T01:55:01.036Z,59.05
2022-10-21T01:57:36.139Z,59.53
2022-10-21T02:00:05.596Z,59.57
2022-10-21T02:02:38.138Z,60.03
2022-10-21T02:05:14.832Z,59.98
2022-10-21T02:07:42.527Z,59.66
2022-10-21T02:10:10.435Z,59.42
2022-10-21T02:12:41.899Z,58.73
2022-10-21T02:15:12.723Z,58.46
2022-10-21T02:17:46.776Z,58.82
2022-10-21T02:20:17.843Z,58.38
2022-10-21T02:22:47.098Z,58.59
2022-10-21T02:25:20.653Z,56.85
2022-10-21T02:27:51.612Z,53.81
2022-10-21T02:30:19.349Z,53.25
2022-10-21T02:32:49.412Z,53.91
2022-10-21T02:35:55.715Z,53.87
2022-10-21T02:38:28.189Z,52.79
2022-10-21T02:41:05.056Z,52.48
2022-10-21T02:43:37.444Z,52.23
2022-10-21T02:46:15.013Z,53.73
2022-10-21T02:48:47.326Z,54.48
2022-10-21T02:51:15.947Z,56.40
2022-10-21T02:53:43.941Z,57.32
2022-10-21T02:56:11.431Z,56.66
2022-10-21T02:58:38.879Z,56.62
2022-10-21T03:01:09.071Z,55.51
2022-10-21T03:03:39.045Z,55.49
2022-10-21T03:06:06.675Z,56.43
2022-10-21T03:08:34.033Z,57.93
2022-10-21T03:11:01.507Z,58.50
2022-10-21T03:13:28.871Z,58.68
2022-10-21T03:15:56.294Z,59.23
2022-10-21T03:18:25.987Z,62.34
2022-10-21T03:20:53.376Z,63.08
2022-10-21T03:23:21.706Z,63.23
2022-10-21T03:25:49.007Z,63.46
2022-10-21T03:28:18.348Z,62.43
2022-10-21T03:30:45.972Z,64.24
2022-10-21T03:33:13.745Z,66.46
2022-10-21T03:35:40.978Z,58.08
2022-10-21T03:38:08.407Z,59.38
2022-10-21T03:40:35.718Z,61.59
2022-10-21T03:43:03.372Z,59.67
2022-10-21T03:45:30.666Z,60.45
2022-10-21T03:47:57.939Z,57.89
2022-10-21T03:50:26.582Z,58.62
2022-10-21T03:52:55.120Z,58.21
2022-10-21T03:55:24.434Z,57.84
2022-10-21T03:57:53.209Z,55.45
2022-10-21T04:00:21.300Z,54.73
2022-10-21T04:02:49.181Z,56.38
2022-10-21T04:05:16.918Z,58.13
2022-10-21T04:07:48.156Z,62.30
2022-10-21T04:10:19.468Z,63.57
2022-10-21T04:12:46.866Z,60.37
2022-10-21T04:15:14.440Z,62.37
2022-10-21T04:17:43.063Z,55.92
2022-10-21T04:20:11.505Z,56.21
2022-10-21T04:22:39.148Z,57.04
2022-10-21T04:25:06.964Z,55.72
2022-10-21T04:27:34.396Z,57.52
2022-10-21T04:30:01.787Z,58.42
2022-10-21T04:32:29.118Z,54.89
2022-10-21T04:34:56.555Z,55.58
2022-10-21T04:37:23.927Z,58.87
2022-10-21T04:39:51.288Z,60.05
2022-10-21T04:42:18.676Z,58.35
2022-10-21T04:44:46.028Z,59.74
2022-10-21T04:47:13.353Z,56.70
2022-10-21T04:49:40.755Z,55.09
2022-10-21T04:52:08.116Z,53.73
2022-10-21T04:54:35.441Z,52.80
2022-10-21T04:57:02.837Z,52.75
2022-10-21T04:59:30.269Z,53.38
2022-10-21T05:01:57.758Z,54.78
2022-10-21T05:04:25.136Z,55.93
2022-10-21T05:06:52.472Z,53.58
2022-10-21T05:09:19.813Z,54.40
2022-10-21T05:11:47.263Z,59.11
2022-10-21T05:14:15.751Z,61.77
2022-10-21T05:16:44.941Z,61.41
2022-10-21T05:19:12.776Z,63.22
2022-10-21T05:21:40.109Z,63.24
2022-10-21T05:24:07.652Z,64.00
2022-10-21T05:26:37.636Z,66.43
2022-10-21T05:29:05.053Z,67.04
2022-10-21T05:31:32.496Z,67.04
2022-10-21T05:33:59.744Z,66.57
2022-10-21T05:36:29.666Z,69.30
2022-10-21T05:38:57.094Z,69.33
2022-10-21T05:41:24.323Z,68.26
2022-10-21T05:43:51.674Z,68.55
2022-10-21T05:46:19.119Z,67.55
2022-10-21T05:51:18.687Z,67.45
2022-10-21T05:53:45.994Z,67.58
2022-10-21T05:56:15.551Z,67.09
2022-10-21T05:58:43.015Z,66.26
2022-10-21T06:01:10.416Z,65.18
2022-10-21T06:03:37.936Z,63.82
2022-10-21T06:06:09.759Z,63.43
2022-10-21T06:08:39.488Z,63.25
2022-10-21T06:11:13.106Z,62.29
2022-10-21T06:13:41.826Z,62.42
2022-10-21T06:16:10.341Z,60.33
2022-10-21T06:18:38.083Z,60.68
2022-10-21T06:21:06.322Z,60.19
2022-10-21T06:23:34.494Z,59.09
2022-10-21T06:26:07.297Z,57.42
2022-10-21T06:28:37.280Z,57.17
2022-10-21T06:31:05.669Z,56.10
2022-10-21T06:33:33.439Z,56.74
2022-10-21T06:36:00.929Z,56.89
2022-10-21T06:38:28.411Z,56.31
2022-10-21T06:41:03.735Z,55.12
2022-10-21T06:43:31.248Z,54.42
2022-10-21T06:46:03.554Z,49.42
2022-10-21T06:48:31.156Z,49.10
2022-10-21T06:51:03.760Z,49.25
2022-10-21T06:53:32.996Z,47.65
2022-10-21T06:56:08.220Z,46.96
2022-10-21T06:58:38.392Z,47.37
2022-10-21T07:01:27.450Z,47.66
2022-10-21T07:04:01.416Z,45.26
2022-10-21T07:06:29.012Z,44.91
2022-10-21T07:08:58.842Z,44.08
2022-10-21T07:11:27.803Z,45.14
2022-10-21T07:13:55.748Z,44.51
2022-10-21T07:16:31.904Z,43.87
2022-10-21T07:18:59.426Z,43.37
2022-10-21T07:21:28.996Z,42.23
2022-10-21T07:23:59.548Z,43.26
2022-10-21T07:26:29.780Z,43.35
2022-10-21T07:28:59.269Z,43.04
2022-10-21T07:31:28.150Z,41.69
2022-10-21T07:33:56.008Z,40.10
2022-10-21T07:36:27.605Z,41.28
2022-10-21T07:38:58.079Z,41.32
2022-10-21T07:41:28.920Z,40.04
2022-10-21T07:43:56.875Z,40.64
2022-10-21T07:46:24.733Z,40.65
2022-10-21T07:48:52.680Z,40.24
2022-10-21T07:51:26.990Z,40.71
2022-10-21T07:53:58.865Z,41.05
2022-10-21T07:56:32.104Z,41.13
2022-10-21T07:59:01.811Z,40.94
2022-10-21T08:01:30.070Z,41.85
2022-10-21T08:03:58.865Z,40.79
2022-10-21T08:06:27.646Z,40.15
2022-10-21T08:08:59.209Z,39.73
2022-10-21T08:11:32.246Z,40.28
2022-10-21T08:14:00.484Z,39.96
2022-10-21T08:16:27.962Z,38.87
2022-10-21T08:18:56.739Z,38.03
2022-10-21T08:21:24.055Z,37.59
2022-10-21T08:23:51.652Z,37.32
2022-10-21T08:26:19.591Z,37.41
2022-10-21T08:28:47.138Z,36.49
2022-10-21T08:31:20.133Z,35.81
2022-10-21T08:33:48.487Z,36.44
2022-10-21T08:36:26.340Z,37.54
2022-10-21T08:38:54.320Z,35.89
2022-10-21T08:41:33.737Z,36.66
2022-10-21T08:44:08.200Z,39.13
2022-10-21T08:46:42.385Z,36.70
2022-10-21T08:49:23.189Z,35.36
2022-10-21T08:52:06.421Z,35.06
2022-10-21T08:55:01.843Z,33.91
2022-10-21T08:57:29.602Z,34.12
2022-10-21T08:59:57.417Z,33.12
2022-10-21T09:02:27.806Z,32.41
2022-10-21T09:05:14.055Z,32.74
2022-10-21T09:07:59.306Z,33.79
2022-10-21T09:10:37.640Z,32.06
2022-10-21T09:13:22.963Z,29.85
2022-10-21T09:16:08.517Z,28.90
2022-10-21T09:19:02.012Z,29.37
2022-10-21T09:22:29.896Z,29.74
2022-10-21T09:25:03.809Z,29.27
2022-10-21T09:27:50.905Z,28.73
2022-10-21T09:30:23.100Z,28.43
2022-10-21T09:32:55.988Z,28.11
2022-10-21T09:35:24.341Z,28.20
2022-10-21T09:37:59.033Z,28.11
2022-10-21T09:40:29.050Z,28.68
2022-10-21T09:42:59.818Z,26.84
2022-10-21T09:45:39.162Z,27.19
2022-10-21T09:48:10.510Z,27.33
2022-10-21T09:50:38.279Z,28.14
2022-10-21T09:53:22.765Z,28.18
2022-10-21T09:55:59.007Z,27.87
2022-10-21T09:58:29.318Z,28.29
2022-10-21T10:00:58.917Z,29.03
2022-10-21T10:03:42.790Z,29.02
2022-10-21T10:06:10.392Z,28.00
2022-10-21T10:08:41.580Z,28.40
2022-10-21T10:11:14.724Z,28.56
2022-10-21T10:13:48.476Z,28.63
2022-10-21T10:16:33.124Z,28.36
2022-10-21T10:19:28.650Z,27.85
2022-10-21T10:22:12.297Z,27.93
2022-10-21T10:24:41.769Z,28.58
2022-10-21T10:27:17.237Z,28.32
2022-10-21T10:29:54.293Z,28.01
2022-10-21T10:32:25.030Z,27.53
2022-10-21T10:34:59.272Z,26.79
2022-10-21T10:37:34.316Z,26.60
2022-10-21T10:40:06.573Z,26.70
2022-10-21T10:42:43.468Z,27.27
2022-10-21T10:45:20.629Z,27.55
2022-10-21T10:47:55.945Z,26.68
2022-10-21T10:50:39.643Z,27.25
2022-10-21T10:53:29.006Z,27.71
2022-10-21T10:56:15.768Z,28.45
2022-10-21T10:58:51.922Z,27.99
2022-10-21T11:01:37.667Z,27.37
2022-10-21T11:04:17.875Z,26.81
2022-10-21T11:06:51.791Z,26.20
2022-10-21T11:09:22.752Z,26.23
2022-10-21T11:11:56.187Z,27.15
2022-10-21T11:14:23.905Z,25.94
2022-10-21T11:17:00.002Z,26.62
2022-10-21T11:19:30.948Z,27.50
2022-10-21T11:22:17.127Z,26.71
2022-10-21T11:25:12.240Z,26.79
2022-10-21T11:28:22.669Z,26.91
2022-10-21T11:31:23.727Z,27.11
2022-10-21T11:34:29.196Z,26.04
2022-10-21T11:37:08.384Z,26.90
2022-10-21T11:40:03.765Z,26.59
2022-10-21T11:42:50.484Z,25.99
2022-10-21T11:45:38.423Z,25.64
2022-10-21T11:48:26.091Z,23.54
2022-10-21T11:51:06.251Z,23.54
2022-10-21T11:53:37.782Z,22.40
2022-10-21T11:56:30.887Z,22.38
2022-10-21T11:59:44.265Z,24.33
2022-10-21T12:02:44.793Z,24.32
2022-10-21T12:05:22.740Z,25.07
2022-10-21T12:08:11.382Z,26.33
2022-10-21T12:10:50.047Z,26.48
2022-10-21T12:13:23.435Z,27.57
2022-10-21T12:15:56.395Z,27.90
2022-10-21T12:18:26.722Z,27.65
2022-10-21T12:20:55.301Z,28.62
2022-10-21T12:23:26.048Z,30.06
2022-10-21T12:25:58.341Z,31.05
2022-10-21T12:28:49.760Z,30.19
2022-10-21T12:31:22.904Z,30.81
2022-10-21T12:33:51.077Z,31.49
2022-10-21T12:36:50.824Z,33.03
2022-10-21T12:39:50.890Z,34.66
2022-10-21T12:42:29.398Z,34.81
2022-10-21T12:44:56.785Z,36.01
2022-10-21T12:47:37.646Z,37.20
2022-10-21T12:50:08.290Z,37.29
2022-10-21T12:52:38.687Z,37.32
2022-10-21T12:55:17.819Z,36.96
2022-10-21T12:57:45.800Z,37.76
2022-10-21T13:00:33.165Z,37.48
2022-10-21T13:03:04.747Z,37.91
2022-10-21T13:05:38.009Z,37.96
2022-10-21T13:08:20.863Z,37.89
2022-10-21T13:11:03.385Z,37.91
2022-10-21T13:13:46.721Z,38.15
2022-10-21T13:16:20.056Z,38.13
2022-10-21T13:19:01.546Z,38.51
2022-10-21T13:21:40.686Z,38.63
2022-10-21T13:24:26.524Z,38.73
2022-10-21T13:27:02.220Z,38.88
2022-10-21T13:29:38.183Z,39.00
2022-10-21T13:32:17.707Z,39.49
2022-10-21T13:34:51.344Z,39.34
2022-10-21T13:37:29.479Z,40.23
2022-10-21T13:39:59.981Z,40.81
2022-10-21T13:42:35.896Z,40.75
2022-10-21T13:45:26.699Z,40.83
2022-10-21T13:48:16.004Z,40.86
2022-10-21T13:50:46.649Z,40.99
2022-10-21T13:53:38.281Z,41.44
2022-10-21T13:56:08.827Z,42.13
2022-10-21T13:58:41.286Z,41.99
2022-10-21T14:01:24.655Z,42.63
2022-10-21T14:03:54.088Z,43.42
2022-10-21T14:06:32.415Z,42.67
2022-10-21T14:09:02.411Z,42.80
2022-10-21T14:11:36.558Z,43.81
2022-10-21T14:14:08.694Z,45.01
2022-10-21T14:16:39.863Z,46.30
2022-10-21T14:19:11.789Z,47.22
2022-10-21T14:21:43.193Z,48.31
2022-10-21T14:24:43.540Z,49.52
2022-10-21T14:27:18.804Z,50.32
2022-10-21T14:29:46.797Z,50.84
2022-10-21T14:32:16.616Z,51.62
2022-10-21T14:35:21.951Z,52.16
2022-10-21T14:37:55.091Z,52.96
2022-10-21T14:40:39.871Z,53.74
2022-10-21T14:43:23.788Z,53.81
2022-10-21T14:45:54.568Z,54.19
2022-10-21T14:48:33.966Z,54.61
2022-10-21T14:51:05.364Z,55.56
2022-10-21T14:53:36.641Z,56.16
2022-10-21T14:56:07.987Z,56.45
2022-10-21T14:58:38.172Z,56.71
2022-10-21T15:01:31.845Z,57.87
2022-10-21T15:04:01.102Z,58.21
2022-10-21T15:06:36.607Z,58.50
2022-10-21T15:09:18.980Z,59.31
2022-10-21T15:11:47.879Z,59.95
2022-10-21T15:14:18.051Z,61.03
2022-10-21T15:17:11.704Z,61.52
2022-10-21T15:19:49.512Z,61.87
2022-10-21T15:22:32.028Z,62.24
2022-10-21T15:25:06.940Z,62.95
2022-10-21T15:27:42.355Z,63.98
2022-10-21T15:30:21.940Z,64.27
2022-10-21T15:32:50.206Z,64.72
2022-10-21T15:35:20.820Z,65.08
2022-10-21T15:37:49.882Z,65.25
2022-10-21T15:40:19.268Z,65.75
2022-10-21T15:42:48.255Z,65.98
2022-10-21T15:45:18.708Z,66.63
2022-10-21T15:47:54.658Z,67.18
2022-10-21T15:50:27.193Z,67.63
2022-10-21T15:55:23.359Z,68.42
2022-10-21T15:57:50.714Z,69.11
2022-10-21T16:00:21.975Z,69.51
2022-10-21T16:02:53.978Z,69.82
2022-10-21T16:05:24.653Z,70.06
2022-10-21T16:07:52.422Z,70.27
2022-10-21T16:10:30.032Z,70.59
2022-10-21T16:12:58.316Z,70.57
2022-10-21T16:15:26.206Z,70.85
2022-10-21T16:17:56.784Z,71.17
2022-10-21T16:20:26.287Z,71.27
2022-10-21T16:22:53.984Z,71.72
2022-10-21T16:25:21.688Z,72.33
2022-10-21T16:27:56.188Z,72.51
2022-10-21T16:30:34.924Z,72.98
2022-10-21T16:33:02.404Z,73.42
2022-10-21T16:35:29.732Z,73.89
2022-10-21T16:37:57.185Z,73.98
2022-10-21T16:40:32.306Z,73.57
2022-10-21T16:42:59.836Z,73.50
2022-10-21T16:45:32.290Z,73.77
2022-10-21T16:48:03.767Z,74.42
2022-10-21T16:50:45.567Z,75.45
2022-10-21T16:53:16.105Z,76.30
2022-10-21T16:55:43.808Z,76.16
2022-10-21T16:58:11.309Z,75.75
2022-10-21T17:00:38.715Z,75.88
2022-10-21T17:03:06.195Z,76.14
2022-10-21T17:08:01.769Z,76.26
2022-10-21T17:10:29.092Z,77.15
2022-10-21T17:12:59.397Z,77.78
2022-10-21T17:15:27.975Z,77.91
2022-10-21T17:17:55.225Z,78.20
2022-10-21T17:20:22.653Z,78.13
2022-10-21T17:22:49.945Z,78.34
2022-10-21T17:25:17.712Z,78.64
2022-10-21T17:27:45.329Z,78.76
2022-10-21T17:30:12.852Z,78.56
2022-10-21T17:32:40.133Z,76.99
2022-10-21T17:35:08.814Z,76.91
2022-10-21T17:37:36.332Z,76.77
2022-10-21T17:40:03.976Z,75.96
2022-10-21T17:42:32.551Z,76.62
2022-10-21T17:45:02.874Z,77.06
2022-10-21T17:47:31.235Z,76.96
2022-10-21T17:49:58.594Z,75.11
2022-10-21T17:52:26.924Z,75.01
2022-10-21T17:54:54.350Z,73.88
2022-10-21T17:57:23.638Z,72.79
2022-10-21T17:59:53.363Z,73.07
2022-10-21T18:02:20.965Z,73.74
2022-10-21T18:04:48.482Z,72.73
2022-10-21T18:07:17.887Z,71.10
2022-10-21T18:09:45.373Z,70.89
2022-10-21T18:12:13.976Z,71.95
2022-10-21T18:14:41.449Z,71.16
2022-10-21T18:17:09.830Z,72.06
2022-10-21T18:19:37.254Z,71.81
2022-10-21T18:22:05.480Z,72.21
2022-10-21T18:24:35.095Z,72.66
2022-10-21T18:27:02.614Z,72.86
2022-10-21T18:29:29.902Z,72.53
2022-10-21T18:31:57.325Z,72.67
2022-10-21T18:34:24.694Z,72.48
2022-10-21T18:39:24.505Z,71.83
2022-10-21T18:41:52.120Z,70.35
2022-10-21T18:44:19.431Z,69.90
2022-10-21T18:46:50.140Z,68.85
2022-10-21T18:49:19.802Z,68.89
2022-10-21T18:51:47.261Z,68.13
2022-10-21T18:54:16.010Z,68.60
2022-10-21T18:56:45.076Z,68.93
2022-10-21T18:59:12.830Z,69.09
2022-10-21T19:01:40.625Z,68.18
2022-10-21T19:04:08.193Z,68.13
2022-10-21T19:06:36.295Z,67.89
2022-10-21T19:09:15.499Z,68.45
2022-10-21T19:11:44.076Z,67.94
2022-10-21T19:14:14.127Z,68.79
2022-10-21T19:16:43.745Z,68.30
2022-10-21T19:19:11.631Z,68.75
2022-10-21T19:21:39.252Z,68.66
2022-10-21T19:24:07.705Z,68.75
2022-10-21T19:26:37.764Z,68.51
2022-10-21T19:29:09.257Z,68.60
2022-10-21T19:31:38.519Z,68.24
2022-10-21T19:34:07.155Z,67.98
2022-10-21T19:36:34.933Z,67.83
2022-10-21T19:39:02.293Z,67.52
2022-10-21T19:41:29.683Z,67.42
2022-10-21T19:44:00.637Z,67.51
2022-10-21T19:46:30.382Z,66.99
2022-10-21T19:49:01.592Z,67.37
2022-10-21T19:51:29.187Z,66.88
2022-10-21T19:53:57.237Z,67.23
2022-10-21T19:56:29.572Z,67.41
2022-10-21T19:59:00.351Z,67.78
2022-10-21T20:01:27.928Z,67.77
2022-10-21T20:03:55.956Z,67.40
2022-10-21T20:06:32.724Z,67.84
2022-10-21T20:09:02.808Z,68.00
2022-10-21T20:11:30.720Z,67.87
2022-10-21T20:13:58.770Z,67.93
2022-10-21T20:16:30.522Z,67.73
2022-10-21T20:19:00.122Z,67.84
2022-10-21T20:21:27.929Z,67.56
2022-10-21T20:23:58.022Z,67.55
2022-10-21T20:26:25.562Z,67.73
2022-10-21T20:28:53.208Z,67.79
2022-10-21T20:31:21.011Z,68.22
2022-10-21T20:33:50.702Z,68.18
2022-10-21T20:36:23.901Z,68.42
2022-10-21T20:38:53.615Z,68.25
2022-10-21T20:41:24.956Z,68.40
2022-10-21T20:43:53.774Z,68.39
2022-10-21T20:46:23.442Z,68.50
2022-10-21T20:48:52.446Z,68.72
2022-10-21T20:51:25.430Z,69.62
2022-10-21T20:53:55.891Z,70.49
2022-10-21T20:56:26.017Z,70.69
2022-10-21T20:58:53.676Z,70.47
2022-10-21T21:01:26.628Z,70.43
2022-10-21T21:03:56.467Z,70.88
2022-10-21T21:06:24.827Z,70.87
2022-10-21T21:09:15.152Z,70.69
2022-10-21T21:11:40.820Z,70.55
2022-10-21T21:14:08.209Z,70.51
2022-10-21T21:16:35.940Z,69.75
2022-10-21T21:19:06.646Z,69.77
2022-10-21T21:21:36.055Z,70.14
2022-10-21T21:24:03.881Z,70.17
2022-10-21T21:26:39.849Z,70.39
2022-10-21T21:29:09.037Z,70.32
2022-10-21T21:31:38.593Z,70.91
2022-10-21T21:34:07.152Z,70.65
2022-10-21T21:36:34.896Z,70.26
2022-10-21T21:39:02.873Z,70.18
2022-10-21T21:41:30.199Z,70.49
2022-10-21T21:43:58.552Z,70.67
2022-10-21T21:46:26.782Z,70.67
2022-10-21T21:49:05.482Z,71.00
2022-10-21T21:51:35.644Z,71.21
2022-10-21T21:54:04.922Z,70.58
2022-10-21T21:56:32.348Z,70.38
2022-10-21T21:58:59.684Z,70.20
2022-10-21T22:01:29.385Z,69.80
2022-10-21T22:03:57.705Z,69.50
2022-10-21T22:06:29.041Z,68.86
2022-10-21T22:08:56.937Z,68.04
2022-10-21T22:11:26.783Z,67.81
2022-10-21T22:13:54.423Z,67.13
2022-10-21T22:16:24.686Z,66.58
2022-10-21T22:18:52.399Z,65.16
2022-10-21T22:21:20.169Z,65.70
2022-10-21T22:23:48.836Z,65.30
2022-10-21T22:26:17.903Z,65.79
2022-10-21T22:28:45.323Z,66.18
2022-10-21T22:31:15.668Z,66.54
2022-10-21T22:36:16.817Z,66.93
2022-10-21T22:38:45.408Z,66.11
2022-10-21T22:41:13.117Z,65.69
2022-10-21T22:43:41.133Z,65.63
2022-10-21T22:46:22.114Z,65.47
2022-10-21T22:48:56.140Z,65.31
2022-10-21T22:51:23.543Z,64.88
2022-10-21T22:53:55.326Z,65.06
2022-10-21T22:56:28.122Z,65.11
2022-10-21T22:58:55.599Z,66.03
2022-10-21T23:01:24.316Z,66.72
2022-10-21T23:03:52.123Z,66.43
2022-10-21T23:06:19.403Z,65.41
2022-10-21T23:08:46.769Z,65.26
2022-10-21T23:11:14.425Z,63.97
2022-10-21T23:13:51.236Z,64.80
2022-10-21T23:16:29.369Z,65.03
2022-10-21T23:18:56.798Z,65.06
2022-10-21T23:21:24.177Z,64.38
2022-10-21T23:23:52.410Z,64.40
2022-10-21T23:26:19.841Z,64.10
2022-10-21T23:28:47.086Z,63.86
2022-10-21T23:31:14.394Z,64.35
2022-10-21T23:33:43.147Z,64.29
2022-10-21T23:36:10.577Z,64.70
2022-10-21T23:38:38.029Z,65.33
2022-10-21T23:41:05.434Z,65.47
2022-10-21T23:43:32.703Z,65.71
2022-10-21T23:46:00.062Z,66.51
2022-10-21T23:48:27.373Z,65.85
2022-10-21T23:50:54.704Z,65.11
2022-10-21T23:53:22.084Z,65.71
2022-10-21T23:55:49.491Z,66.25
2022-10-21T23:58:16.730Z,66.15
